Terminal Aerodrome Forecast
Issued by NWS North Platte, NE

Home | Current Version | Previous Version | Text Only | Print | Product List | Glossary On
Versions: 1 2 3 4 5 6 7 8 9 10 11 12 13 14 15 16 17 18 19 20
000
FTUS43 KLBF 212300
TAFVTN
TAF
KVTN 212335Z 2200/2224 15006KT P6SM SCT050 SCT100
     FM220300 15008KT P6SM BKN100
     FM221500 16014G20KT P6SM SCT050 OVC100
     FM222200 14017G24KT P6SM -RA OVC025=

USA.gov is the U.S. government's official web portal to all federal, state and local government web resources and services.